Bassett, Iowa
Current Conditions -  °F | °C
As of 5:35 PM on Sunday 21 Dec 2014 (Local Time) from KCCY Reporting Station
Haze Haze  
Wind Chill: 29°   Ceiling: 400
Heat Index: 37°   Visibility: 1.5mi
Dew Point: 37°   Wind: 13mph
Humidity: 100%   Direction: 170°S
Pressure: 29.84"   Gusts: 18mph
Location:  43.0386°N, 92.4951°W
Report Text: KCCY 212335Z AUTO 17011G16KT 1 1/2SM BR OVC004 03/03 A2984 RMK AO2
Loading
Personal Weather Stations






























Interactive Weather Map New forecast layout! Learn more

10-Day Weather Forecast

Advertisements
Track Severe Weather on mobile